Time;durP1;ratioP1;P1;durP2;ratioP2;P2;SDS_P1;SDS_P2;PMS_P1;PMS_P2;Temp;Humidity;BMP_temperature;BMP_pressure;BME280_temperature;BME280_humidity;BME280_pressure;Samples;Min_cycle;Max_cycle;Signal;HPM_P1;HPM_P2
2023/06/17 00:00:43;;;;;;;6.35;4.03;;;;;;;;;;5023953;28;20014;-81
2023/06/17 00:03:10;;;;;;;7.30;4.60;;;;;;;;;;5019263;28;20062;-80
2023/06/17 00:05:38;;;;;;;6.78;4.57;;;;;;;;;;5022636;28;20153;-80
2023/06/17 00:08:10;;;;;;;8.57;4.38;;;;;;;;;;5019562;28;20105;-80
2023/06/17 00:10:36;;;;;;;5.82;3.85;;;;;;;;;;5019479;28;20026;-81
2023/06/17 00:13:03;;;;;;;7.72;4.30;;;;;;;;;;5019693;28;20029;-80
2023/06/17 00:15:32;;;;;;;10.25;4.00;;;;;;;;;;5018642;28;20138;-81
2023/06/17 00:18:00;;;;;;;6.40;3.70;;;;;;;;;;5020680;28;20086;-82
2023/06/17 00:20:28;;;;;;;7.75;4.03;;;;;;;;;;5022313;28;20011;-80
2023/06/17 00:22:55;;;;;;;8.10;3.83;;;;;;;;;;5020895;28;20065;-81
2023/06/17 00:25:36;;;;;;;7.47;4.30;;;;;;;;;;5021340;28;20014;-80
2023/06/17 00:28:05;;;;;;;7.70;4.47;;;;;;;;;;5019381;28;20093;-80
2023/06/17 00:30:31;;;;;;;13.85;3.63;;;;;;;;;;5021559;28;20018;-82
2023/06/17 00:33:00;;;;;;;7.30;5.03;;;;;;;;;;5019968;28;20026;-81
2023/06/17 00:35:29;;;;;;;12.75;4.97;;;;;;;;;;5021477;28;20057;-82
2023/06/17 00:37:58;;;;;;;7.03;4.35;;;;;;;;;;5015827;28;20038;-80
2023/06/17 00:40:25;;;;;;;6.82;4.88;;;;;;;;;;5022595;28;20068;-81
2023/06/17 00:42:51;;;;;;;7.85;4.30;;;;;;;;;;5020947;28;20041;-80
2023/06/17 00:45:17;;;;;;;6.75;5.03;;;;;;;;;;5019123;28;20060;-83
2023/06/17 00:47:43;;;;;;;9.23;4.53;;;;;;;;;;5021352;28;20029;-80
2023/06/17 00:50:16;;;;;;;7.78;4.63;;;;;;;;;;5042162;28;20025;-81
2023/06/17 00:52:43;;;;;;;10.57;5.15;;;;;;;;;;5032515;28;20010;-81
2023/06/17 00:55:11;;;;;;;11.23;5.38;;;;;;;;;;5039609;28;20034;-81
2023/06/17 00:57:38;;;;;;;14.18;4.72;;;;;;;;;;5025910;28;20015;-81
2023/06/17 01:00:07;;;;;;;10.63;5.22;;;;;;;;;;5024026;28;20060;-80
2023/06/17 01:02:33;;;;;;;6.45;4.70;;;;;;;;;;5020200;28;20111;-80
2023/06/17 01:05:01;;;;;;;9.82;4.60;;;;;;;;;;5018996;28;20029;-81
2023/06/17 01:07:35;;;;;;;9.00;4.97;;;;;;;;;;5043103;28;20056;-80
2023/06/17 01:10:22;;;;;;;7.72;5.55;;;;;;;;;;5037610;28;20026;-82
2023/06/17 01:12:50;;;;;;;10.05;4.78;;;;;;;;;;5036230;28;20029;-80
2023/06/17 01:15:17;;;;;;;6.80;4.72;;;;;;;;;;5034402;28;20026;-81
2023/06/17 01:17:44;;;;;;;8.20;5.35;;;;;;;;;;5022572;28;20026;-83
2023/06/17 01:20:12;;;;;;;6.22;4.68;;;;;;;;;;5018306;28;20050;-81
2023/06/17 01:22:38;;;;;;;12.35;5.38;;;;;;;;;;5024319;28;20038;-81
2023/06/17 01:25:05;;;;;;;13.82;5.07;;;;;;;;;;5025942;28;20020;-82
2023/06/17 01:27:33;;;;;;;8.73;4.85;;;;;;;;;;5026524;28;20093;-80
2023/06/17 01:29:59;;;;;;;7.60;4.50;;;;;;;;;;5023866;28;20029;-81
2023/06/17 01:32:25;;;;;;;7.55;4.75;;;;;;;;;;5238134;22;20076;-80
2023/06/17 01:34:51;;;;;;;7.43;5.03;;;;;;;;;;5050606;28;20012;-81
2023/06/17 01:37:30;;;;;;;12.52;5.43;;;;;;;;;;5052949;28;20009;-80
2023/06/17 01:39:57;;;;;;;8.63;5.32;;;;;;;;;;5050345;28;20037;-81
2023/06/17 01:42:31;;;;;;;11.93;5.40;;;;;;;;;;5064644;28;20036;-84
2023/06/17 01:44:58;;;;;;;6.82;4.50;;;;;;;;;;5067011;28;20033;-81
2023/06/17 01:47:27;;;;;;;9.25;5.43;;;;;;;;;;5048124;28;20020;-80
2023/06/17 01:50:08;;;;;;;15.48;5.70;;;;;;;;;;5054499;28;20036;-80
2023/06/17 01:52:35;;;;;;;9.25;5.53;;;;;;;;;;5051676;28;20037;-80
2023/06/17 01:55:01;;;;;;;9.65;5.22;;;;;;;;;;5066246;28;20034;-81
2023/06/17 01:57:29;;;;;;;8.80;4.95;;;;;;;;;;5053500;28;20040;-80
2023/06/17 02:00:00;;;;;;;10.25;4.93;;;;;;;;;;5051307;28;20049;-80
2023/06/17 02:02:34;;;;;;;9.50;5.40;;;;;;;;;;5066829;28;20029;-81
2023/06/17 02:05:00;;;;;;;11.18;5.38;;;;;;;;;;5051071;28;20018;-81
2023/06/17 02:07:33;;;;;;;11.30;5.15;;;;;;;;;;5066059;28;20014;-82
2023/06/17 02:10:00;;;;;;;12.20;5.00;;;;;;;;;;5052122;28;20041;-81
2023/06/17 02:12:26;;;;;;;9.85;4.88;;;;;;;;;;5054204;28;20014;-81
2023/06/17 02:14:52;;;;;;;9.52;4.78;;;;;;;;;;5048444;28;20010;-80
2023/06/17 02:17:18;;;;;;;12.33;5.13;;;;;;;;;;5048883;28;20028;-81
2023/06/17 02:19:44;;;;;;;7.53;4.93;;;;;;;;;;5052677;28;20026;-82
2023/06/17 02:22:10;;;;;;;9.02;4.53;;;;;;;;;;5051547;28;20218;-82
2023/06/17 02:24:36;;;;;;;6.43;4.77;;;;;;;;;;5054169;28;20022;-81
2023/06/17 02:27:08;;;;;;;9.73;4.95;;;;;;;;;;5051596;28;20028;-80
2023/06/17 02:29:40;;;;;;;9.90;4.60;;;;;;;;;;5058367;28;20068;-80
2023/06/17 02:32:09;;;;;;;6.78;4.88;;;;;;;;;;5060638;28;20032;-80
2023/06/17 02:34:35;;;;;;;10.70;5.47;;;;;;;;;;5053723;28;20029;-81
2023/06/17 02:37:16;;;;;;;10.52;5.53;;;;;;;;;;5053686;28;20024;-81
2023/06/17 02:39:45;;;;;;;8.00;4.90;;;;;;;;;;5055705;28;20017;-82
2023/06/17 02:42:11;;;;;;;8.77;5.20;;;;;;;;;;5056882;28;20052;-81
2023/06/17 02:44:37;;;;;;;8.33;5.30;;;;;;;;;;5069474;28;20053;-82
2023/06/17 02:47:07;;;;;;;14.50;5.57;;;;;;;;;;5069034;28;20032;-80
2023/06/17 02:49:33;;;;;;;8.13;5.10;;;;;;;;;;5054855;28;20016;-81
2023/06/17 02:52:01;;;;;;;12.00;5.30;;;;;;;;;;5051035;28;20048;-80
2023/06/17 02:54:27;;;;;;;10.07;5.10;;;;;;;;;;5053853;28;20053;-80
2023/06/17 02:57:01;;;;;;;6.70;4.90;;;;;;;;;;5057700;28;20022;-80
2023/06/17 02:59:33;;;;;;;11.67;4.93;;;;;;;;;;5055730;28;20077;-81
2023/06/17 03:02:05;;;;;;;9.40;5.30;;;;;;;;;;5067640;28;20112;-80
2023/06/17 03:04:37;;;;;;;7.53;4.82;;;;;;;;;;5053169;28;20025;-80
2023/06/17 03:07:10;;;;;;;9.63;5.07;;;;;;;;;;5060005;28;20017;-80
2023/06/17 03:09:36;;;;;;;8.67;4.60;;;;;;;;;;5050838;28;20037;-82
2023/06/17 03:12:02;;;;;;;8.57;4.87;;;;;;;;;;5052362;28;20051;-81
2023/06/17 03:14:35;;;;;;;6.83;5.37;;;;;;;;;;5052799;28;20033;-80
2023/06/17 03:17:02;;;;;;;7.70;5.37;;;;;;;;;;5054860;28;20327;-81
2023/06/17 03:19:29;;;;;;;8.23;5.27;;;;;;;;;;5061554;28;20035;-80
2023/06/17 03:21:55;;;;;;;9.10;5.23;;;;;;;;;;5057457;28;20068;-80
2023/06/17 03:24:22;;;;;;;6.50;4.83;;;;;;;;;;5054676;28;20021;-80
2023/06/17 03:26:53;;;;;;;7.83;4.93;;;;;;;;;;5052168;28;20038;-81
2023/06/17 03:29:21;;;;;;;6.67;4.63;;;;;;;;;;5051990;28;20053;-80
2023/06/17 03:31:58;;;;;;;9.87;4.93;;;;;;;;;;5051551;28;20006;-80
2023/06/17 03:34:45;;;;;;;10.10;5.43;;;;;;;;;;5049908;28;20037;-80
2023/06/17 03:37:11;;;;;;;10.68;4.70;;;;;;;;;;5057101;28;20025;-81
2023/06/17 03:39:37;;;;;;;11.40;4.50;;;;;;;;;;5054963;28;20090;-82
2023/06/17 03:42:06;;;;;;;8.00;4.40;;;;;;;;;;5050899;28;20033;-82
2023/06/17 03:44:37;;;;;;;7.93;5.00;;;;;;;;;;5052118;28;20059;-80
2023/06/17 03:47:03;;;;;;;6.97;4.63;;;;;;;;;;5056453;28;20029;-80
2023/06/17 03:49:36;;;;;;;12.23;5.80;;;;;;;;;;5054222;28;20056;-80
2023/06/17 03:52:05;;;;;;;10.23;5.63;;;;;;;;;;5048852;28;20033;-81
2023/06/17 03:54:32;;;;;;;11.53;5.43;;;;;;;;;;5069108;28;20081;-80
2023/06/17 03:57:03;;;;;;;9.70;5.37;;;;;;;;;;5057044;28;20037;-80
2023/06/17 03:59:32;;;;;;;8.63;5.13;;;;;;;;;;5051406;28;20085;-80
2023/06/17 04:02:01;;;;;;;16.13;5.50;;;;;;;;;;5049535;28;20049;-80
2023/06/17 04:04:34;;;;;;;9.20;5.27;;;;;;;;;;5052777;28;20033;-80
2023/06/17 04:07:00;;;;;;;8.30;5.30;;;;;;;;;;5053299;28;20041;-80
2023/06/17 04:09:29;;;;;;;7.43;5.10;;;;;;;;;;5053073;28;20089;-80
2023/06/17 04:11:57;;;;;;;11.50;5.53;;;;;;;;;;5056621;28;20081;-80
2023/06/17 04:14:24;;;;;;;10.37;5.93;;;;;;;;;;5051116;28;20009;-80
2023/06/17 04:16:59;;;;;;;9.90;5.50;;;;;;;;;;5048697;28;20037;-81
2023/06/17 04:19:25;;;;;;;10.17;5.27;;;;;;;;;;5057350;28;20021;-81
2023/06/17 04:21:54;;;;;;;12.87;5.77;;;;;;;;;;5054214;28;20037;-81
2023/06/17 04:24:25;;;;;;;11.63;6.03;;;;;;;;;;5051124;28;20045;-80
2023/06/17 04:29:40;;;;;;;14.57;6.80;;;;;;;;;;5052164;28;20014;-81
2023/06/17 04:32:10;;;;;;;12.97;6.93;;;;;;;;;;5049714;28;20042;-80
2023/06/17 04:34:42;;;;;;;10.63;5.07;;;;;;;;;;5052628;28;20041;-81
2023/06/17 04:37:09;;;;;;;;;;;;;;;;;;5054963;28;20044;-82
2023/06/17 04:39:35;;;;;;;9.17;6.47;;;;;;;;;;5051562;28;19921;-81
2023/06/17 04:42:01;;;;;;;8.23;6.07;;;;;;;;;;5050729;28;20049;-81
2023/06/17 04:44:31;;;;;;;11.13;6.63;;;;;;;;;;5050268;28;20045;-82
2023/06/17 04:47:02;;;;;;;10.60;6.13;;;;;;;;;;5053153;28;20150;-80
2023/06/17 04:49:30;;;;;;;12.37;6.33;;;;;;;;;;5056787;28;20097;-81
2023/06/17 04:51:58;;;;;;;10.27;6.57;;;;;;;;;;5055654;28;20014;-80
2023/06/17 04:54:28;;;;;;;13.17;6.93;;;;;;;;;;5052335;28;20036;-80
2023/06/17 04:57:04;;;;;;;;;;;;;;;;;;;;;
2023/06/17 04:59:33;;;;;;;9.27;5.67;;;;;;;;;;5051479;28;20048;-82
2023/06/17 05:02:10;;;;;;;10.03;5.40;;;;;;;;;;5052392;28;20021;-80
2023/06/17 05:04:38;;;;;;;7.83;5.47;;;;;;;;;;5067333;28;20018;-83
2023/06/17 05:07:06;;;;;;;9.48;4.57;;;;;;;;;;5051966;28;20057;-81
2023/06/17 05:09:45;;;;;;;;;;;;;;;;;;;;;
2023/06/17 05:12:12;;;;;;;10.73;6.10;;;;;;;;;;5050613;28;20013;-81
2023/06/17 05:14:40;;;;;;;12.43;6.33;;;;;;;;;;5050667;28;20017;-81
2023/06/17 05:17:15;;;;;;;16.50;6.67;;;;;;;;;;5054704;28;20033;-81
2023/06/17 05:19:44;;;;;;;7.37;5.30;;;;;;;;;;5068195;28;20044;-82
2023/06/17 05:22:19;;;;;;;12.68;5.32;;;;;;;;;;5053159;28;20101;-82
2023/06/17 05:24:50;;;;;;;6.47;4.95;;;;;;;;;;5037521;28;20045;-81
2023/06/17 05:27:21;;;;;;;10.75;5.90;;;;;;;;;;5049521;28;20042;-81
2023/06/17 05:29:58;;;;;;;9.32;5.45;;;;;;;;;;5052527;28;20017;-81
2023/06/17 05:32:36;;;;;;;8.65;5.78;;;;;;;;;;5053053;28;20013;-80
2023/06/17 05:35:13;;;;;;;12.32;6.45;;;;;;;;;;5048578;28;20088;-80
2023/06/17 05:37:39;;;;;;;7.75;5.32;;;;;;;;;;5067068;28;20033;-80
2023/06/17 05:40:05;;;;;;;13.82;5.80;;;;;;;;;;5051521;28;20030;-81
2023/06/17 05:42:40;;;;;;;10.07;5.85;;;;;;;;;;5053341;28;20052;-82
2023/06/17 05:45:14;;;;;;;10.40;6.25;;;;;;;;;;5060427;28;20089;-81
2023/06/17 05:47:43;;;;;;;12.45;6.18;;;;;;;;;;5046906;28;20029;-82
2023/06/17 05:50:14;;;;;;;11.50;5.47;;;;;;;;;;5065138;28;21253;-80
2023/06/17 05:52:44;;;;;;;9.55;5.60;;;;;;;;;;5065832;28;20022;-81
2023/06/17 05:55:12;;;;;;;12.32;6.30;;;;;;;;;;5054459;28;20024;-82
2023/06/17 05:57:38;;;;;;;10.45;5.55;;;;;;;;;;5066360;28;20048;-80
2023/06/17 06:00:05;;;;;;;9.75;6.18;;;;;;;;;;5054271;28;20050;-80
2023/06/17 06:02:33;;;;;;;9.05;5.55;;;;;;;;;;5053979;28;20061;-81
2023/06/17 06:05:07;;;;;;;8.00;5.70;;;;;;;;;;5050691;28;20036;-80
2023/06/17 06:07:43;;;;;;;8.05;5.68;;;;;;;;;;5066886;28;20041;-80
2023/06/17 06:10:24;;;;;;;12.85;5.60;;;;;;;;;;5050058;28;20044;-82
2023/06/17 06:13:08;;;;;;;10.85;5.60;;;;;;;;;;5064057;28;20017;-81
2023/06/17 06:15:45;;;;;;;11.13;6.55;;;;;;;;;;5056316;28;20030;-81
2023/06/17 06:18:11;;;;;;;11.50;6.07;;;;;;;;;;5051357;28;20033;-82
2023/06/17 06:20:39;;;;;;;12.20;5.65;;;;;;;;;;5068334;28;20089;-81
2023/06/17 06:23:26;;;;;;;9.77;5.43;;;;;;;;;;5046104;28;20034;-80
2023/06/17 06:25:56;;;;;;;11.43;6.97;;;;;;;;;;5049327;28;20030;-81
2023/06/17 06:28:29;;;;;;;11.85;7.88;;;;;;;;;;5047361;28;20029;-81
2023/06/17 06:31:04;;;;;;;20.92;9.25;;;;;;;;;;5052728;28;20021;-81
2023/06/17 06:33:31;;;;;;;14.05;5.93;;;;;;;;;;5062505;28;20089;-81
2023/06/17 06:36:07;;;;;;;10.40;6.07;;;;;;;;;;5053623;28;20026;-83
2023/06/17 06:38:33;;;;;;;8.88;6.25;;;;;;;;;;5067270;28;20045;-81
2023/06/17 06:40:59;;;;;;;11.50;6.07;;;;;;;;;;5143482;23;20061;-80
2023/06/17 06:43:25;;;;;;;8.88;6.70;;;;;;;;;;5041357;28;20014;-80
2023/06/17 06:48:25;;;;;;;9.93;5.80;;;;;;;;;;4973497;29;20019;-80
2023/06/17 06:50:51;;;;;;;11.13;6.40;;;;;;;;;;5395335;23;20030;-81
2023/06/17 06:53:19;;;;;;;15.90;6.10;;;;;;;;;;5033290;28;20018;-80
2023/06/17 06:55:45;;;;;;;19.33;10.02;;;;;;;;;;5033275;28;20033;-80
2023/06/17 06:58:11;;;;;;;15.98;8.70;;;;;;;;;;5208276;23;20070;-80
2023/06/17 07:00:39;;;;;;;11.68;7.40;;;;;;;;;;5025333;28;20017;-80
2023/06/17 07:03:08;;;;;;;14.32;6.70;;;;;;;;;;5030266;28;20026;-80
2023/06/17 07:05:48;;;;;;;15.32;6.78;;;;;;;;;;5015261;28;20091;-80
2023/06/17 07:10:53;;;;;;;11.38;6.10;;;;;;;;;;5337032;23;20109;-80
2023/06/17 07:15:55;;;;;;;10.60;6.30;;;;;;;;;;5064702;23;20045;-80
2023/06/17 07:18:22;;;;;;;9.55;5.18;;;;;;;;;;5070040;28;20037;-80
2023/06/17 07:26:00;;;;;;;13.70;6.78;;;;;;;;;;6080316;23;20010;-80
2023/06/17 07:28:28;;;;;;;14.38;5.82;;;;;;;;;;5419699;23;20017;-80
2023/06/17 07:31:06;;;;;;;14.90;5.95;;;;;;;;;;5068214;28;20029;-80
2023/06/17 07:33:32;;;;;;;12.75;5.93;;;;;;;;;;5062819;28;20030;-80
2023/06/17 07:35:58;;;;;;;11.43;6.20;;;;;;;;;;5046518;28;20068;-78
2023/06/17 07:38:25;;;;;;;10.07;6.40;;;;;;;;;;5059772;28;20026;-80
2023/06/17 07:40:51;;;;;;;12.27;5.78;;;;;;;;;;5044252;28;20033;-79
2023/06/17 07:43:17;;;;;;;12.55;6.13;;;;;;;;;;5060046;28;20034;-80
2023/06/17 07:45:48;;;;;;;8.85;5.43;;;;;;;;;;5059501;28;20045;-79
2023/06/17 07:48:14;;;;;;;10.10;5.47;;;;;;;;;;5105168;23;20034;-78
2023/06/17 07:50:41;;;;;;;13.30;6.00;;;;;;;;;;5058502;28;20034;-79
2023/06/17 07:53:07;;;;;;;8.45;6.13;;;;;;;;;;5046011;28;20080;-81
2023/06/17 07:55:35;;;;;;;7.00;5.20;;;;;;;;;;5059362;28;20030;-78
2023/06/17 07:58:01;;;;;;;11.77;5.65;;;;;;;;;;5046444;28;20033;-80
2023/06/17 08:00:31;;;;;;;12.18;5.80;;;;;;;;;;5047209;28;20039;-79
2023/06/17 08:02:57;;;;;;;13.07;5.00;;;;;;;;;;5072018;28;20040;-80
2023/06/17 08:05:23;;;;;;;9.63;5.30;;;;;;;;;;5059584;28;20029;-80
2023/06/17 08:07:49;;;;;;;9.23;5.25;;;;;;;;;;5070560;28;20037;-78
2023/06/17 08:10:15;;;;;;;8.07;5.25;;;;;;;;;;5071796;28;20031;-79
2023/06/17 08:12:41;;;;;;;7.53;4.70;;;;;;;;;;5056767;28;20024;-80
2023/06/17 08:15:08;;;;;;;9.85;5.18;;;;;;;;;;5074673;28;20032;-80
2023/06/17 08:17:34;;;;;;;8.38;4.80;;;;;;;;;;5049673;28;20021;-80
2023/06/17 08:20:00;;;;;;;9.48;5.47;;;;;;;;;;5060022;28;20104;-80
2023/06/17 08:22:26;;;;;;;8.02;5.15;;;;;;;;;;5058536;28;20092;-80
2023/06/17 08:24:52;;;;;;;8.30;5.38;;;;;;;;;;5073183;28;20059;-80
2023/06/17 08:27:18;;;;;;;7.85;4.25;;;;;;;;;;5060009;28;20025;-80
2023/06/17 08:29:47;;;;;;;8.75;4.22;;;;;;;;;;5062898;28;20025;-78
2023/06/17 08:32:13;;;;;;;9.98;4.68;;;;;;;;;;5078731;28;20039;-80
2023/06/17 08:34:42;;;;;;;7.55;3.85;;;;;;;;;;5061135;28;20025;-79
2023/06/17 08:37:09;;;;;;;8.82;4.47;;;;;;;;;;5074325;28;20047;-80
2023/06/17 08:39:39;;;;;;;6.30;3.90;;;;;;;;;;5061525;28;20028;-80
2023/06/17 08:42:07;;;;;;;10.60;5.13;;;;;;;;;;5077142;28;20037;-80
2023/06/17 08:44:36;;;;;;;9.43;4.55;;;;;;;;;;5073466;28;21159;-80
2023/06/17 08:47:03;;;;;;;8.40;4.18;;;;;;;;;;5049858;28;20017;-80
2023/06/17 08:49:29;;;;;;;9.43;4.35;;;;;;;;;;5074878;28;20044;-80
2023/06/17 08:51:55;;;;;;;8.50;4.20;;;;;;;;;;5061252;28;20029;-79
2023/06/17 08:54:22;;;;;;;8.07;4.00;;;;;;;;;;5059130;28;20021;-80
2023/06/17 08:56:48;;;;;;;12.52;4.10;;;;;;;;;;5053803;28;20021;-80
2023/06/17 08:59:14;;;;;;;5.60;4.25;;;;;;;;;;5072977;28;20016;-82
2023/06/17 09:01:42;;;;;;;5.97;3.83;;;;;;;;;;5063701;28;20128;-80
2023/06/17 09:04:13;;;;;;;5.45;3.70;;;;;;;;;;5075604;28;20395;-82
2023/06/17 09:06:39;;;;;;;7.72;3.90;;;;;;;;;;5060421;28;20025;-80
2023/06/17 09:09:05;;;;;;;9.07;4.60;;;;;;;;;;5059813;28;20029;-80
2023/06/17 09:11:32;;;;;;;8.80;4.25;;;;;;;;;;5058609;28;20430;-80
2023/06/17 09:14:02;;;;;;;7.80;3.92;;;;;;;;;;5077039;28;20077;-79
2023/06/17 09:16:31;;;;;;;7.18;4.07;;;;;;;;;;5058356;28;20021;-80
2023/06/17 09:19:05;;;;;;;6.80;4.40;;;;;;;;;;5075324;28;20030;-86
2023/06/17 09:21:31;;;;;;;9.95;4.32;;;;;;;;;;5051829;28;20037;-82
2023/06/17 09:24:01;;;;;;;7.03;3.45;;;;;;;;;;5047370;28;20089;-83
2023/06/17 09:26:30;;;;;;;5.20;3.22;;;;;;;;;;5047860;28;20434;-84
2023/06/17 09:29:03;;;;;;;5.45;4.20;;;;;;;;;;5049427;28;20026;-80
2023/06/17 09:31:29;;;;;;;9.63;3.92;;;;;;;;;;5047165;28;20044;-82
2023/06/17 09:33:56;;;;;;;6.50;3.35;;;;;;;;;;5038157;28;20068;-84
2023/06/17 09:36:23;;;;;;;5.13;3.63;;;;;;;;;;5050578;28;20099;-84
2023/06/17 09:38:53;;;;;;;7.65;4.10;;;;;;;;;;5037741;28;20029;-85
2023/06/17 09:41:23;;;;;;;7.93;4.35;;;;;;;;;;5035887;28;20083;-82
2023/06/17 09:43:50;;;;;;;9.02;3.92;;;;;;;;;;5050924;28;20044;-83
2023/06/17 09:46:24;;;;;;;8.07;3.70;;;;;;;;;;5055884;28;20102;-83
2023/06/17 09:48:52;;;;;;;12.57;4.00;;;;;;;;;;5035807;28;20059;-82
2023/06/17 09:51:20;;;;;;;13.30;3.63;;;;;;;;;;5037098;28;20094;-85
2023/06/17 09:53:47;;;;;;;8.95;4.65;;;;;;;;;;5050777;28;20022;-85
2023/06/17 09:56:14;;;;;;;10.55;4.22;;;;;;;;;;5049369;28;20029;-84
2023/06/17 09:58:44;;;;;;;7.00;4.38;;;;;;;;;;5048956;28;20363;-85
2023/06/17 10:01:11;;;;;;;7.35;4.20;;;;;;;;;;5034785;28;20107;-85
2023/06/17 10:03:39;;;;;;;6.03;3.80;;;;;;;;;;5047561;28;20026;-85
2023/06/17 10:06:12;;;;;;;7.25;3.72;;;;;;;;;;5049866;28;20040;-84
2023/06/17 10:08:43;;;;;;;5.47;3.95;;;;;;;;;;5058081;28;20025;-84
2023/06/17 10:11:13;;;;;;;6.70;4.30;;;;;;;;;;5050481;28;20056;-85
2023/06/17 10:13:40;;;;;;;10.23;5.07;;;;;;;;;;5049827;28;20031;-84
2023/06/17 10:16:08;;;;;;;6.60;4.47;;;;;;;;;;5050814;28;20112;-85
2023/06/17 10:18:36;;;;;;;6.68;4.20;;;;;;;;;;5048842;28;20379;-84
2023/06/17 10:21:02;;;;;;;10.85;6.90;;;;;;;;;;5049118;28;20025;-85
2023/06/17 10:23:28;;;;;;;6.75;3.92;;;;;;;;;;5039070;28;20033;-85
2023/06/17 10:25:54;;;;;;;8.55;4.30;;;;;;;;;;5032455;28;20037;-84
2023/06/17 10:28:21;;;;;;;8.15;3.75;;;;;;;;;;5051574;28;20474;-84
2023/06/17 10:30:51;;;;;;;10.25;4.13;;;;;;;;;;5035737;28;20144;-85
2023/06/17 10:33:26;;;;;;;8.02;4.13;;;;;;;;;;5048911;28;20025;-85
2023/06/17 10:36:05;;;;;;;8.80;4.10;;;;;;;;;;5047028;28;20022;-84
2023/06/17 10:38:34;;;;;;;6.72;4.03;;;;;;;;;;5026561;28;20026;-85
2023/06/17 10:41:00;;;;;;;8.43;3.45;;;;;;;;;;5033624;28;20079;-86
2023/06/17 10:43:27;;;;;;;6.32;4.10;;;;;;;;;;5029272;28;20107;-85
2023/06/17 10:45:57;;;;;;;9.13;3.78;;;;;;;;;;5038115;28;20057;-85
2023/06/17 10:48:23;;;;;;;7.03;3.65;;;;;;;;;;5051882;28;20036;-83
2023/06/17 10:50:56;;;;;;;9.45;4.30;;;;;;;;;;5037860;28;20108;-84
2023/06/17 10:53:27;;;;;;;5.70;3.70;;;;;;;;;;5038320;28;20477;-85
2023/06/17 10:55:53;;;;;;;5.28;3.40;;;;;;;;;;5054583;28;20036;-86
2023/06/17 10:58:19;;;;;;;10.43;3.20;;;;;;;;;;5051030;28;20050;-84
2023/06/17 11:00:45;;;;;;;7.03;3.78;;;;;;;;;;5037165;28;20519;-85
2023/06/17 11:03:11;;;;;;;11.07;3.30;;;;;;;;;;5052330;28;20044;-85
2023/06/17 11:05:37;;;;;;;6.35;3.20;;;;;;;;;;5042817;28;20086;-84
2023/06/17 11:08:04;;;;;;;8.32;3.30;;;;;;;;;;5039055;28;20056;-85
2023/06/17 11:10:30;;;;;;;5.03;3.30;;;;;;;;;;5035987;28;20022;-85
2023/06/17 11:12:56;;;;;;;7.18;2.92;;;;;;;;;;5053142;28;20157;-84
2023/06/17 11:15:22;;;;;;;5.10;3.42;;;;;;;;;;5053220;28;20065;-85
2023/06/17 11:17:58;;;;;;;6.82;3.35;;;;;;;;;;5035053;28;20667;-85
2023/06/17 11:20:24;;;;;;;9.20;3.47;;;;;;;;;;5048934;28;20037;-85
2023/06/17 11:22:52;;;;;;;5.60;3.05;;;;;;;;;;5051602;28;20037;-84
2023/06/17 11:25:18;;;;;;;4.70;2.72;;;;;;;;;;5035774;28;20033;-85
2023/06/17 11:27:45;;;;;;;7.03;3.30;;;;;;;;;;5034768;28;20036;-85
2023/06/17 11:30:13;;;;;;;4.05;2.88;;;;;;;;;;5052673;28;20040;-84
2023/06/17 11:32:43;;;;;;;5.25;3.42;;;;;;;;;;5052680;28;20025;-85
2023/06/17 11:35:09;;;;;;;3.55;2.88;;;;;;;;;;5036834;28;20082;-84
2023/06/17 11:37:35;;;;;;;6.85;3.00;;;;;;;;;;5039990;28;20037;-84
2023/06/17 11:42:53;;;;;;;4.45;3.00;;;;;;;;;;4994700;28;20026;-84
2023/06/17 11:45:21;;;;;;;5.00;3.10;;;;;;;;;;4995110;28;20133;-85
2023/06/17 11:47:47;;;;;;;5.30;3.47;;;;;;;;;;4993545;28;20627;-85
2023/06/17 11:50:14;;;;;;;7.88;3.53;;;;;;;;;;4996513;28;20026;-89
2023/06/17 11:52:39;;;;;;;15.93;3.90;;;;;;;;;;4993548;28;20026;-87
2023/06/17 11:55:06;;;;;;;5.55;2.70;;;;;;;;;;4979404;28;20052;-86
2023/06/17 11:57:32;;;;;;;3.75;2.72;;;;;;;;;;4995163;28;20038;-86
2023/06/17 12:00:04;;;;;;;5.35;2.90;;;;;;;;;;4978670;28;20045;-88
2023/06/17 12:02:31;;;;;;;7.80;3.00;;;;;;;;;;4996360;28;20041;-88
2023/06/17 12:05:03;;;;;;;4.45;3.05;;;;;;;;;;4978638;28;20081;-85
2023/06/17 12:07:29;;;;;;;5.45;3.45;;;;;;;;;;4987043;28;20026;-87
2023/06/17 12:09:56;;;;;;;8.88;3.50;;;;;;;;;;5000902;28;20070;-86
2023/06/17 12:12:26;;;;;;;5.35;3.13;;;;;;;;;;4996843;28;20458;-86
2023/06/17 12:14:57;;;;;;;5.93;3.22;;;;;;;;;;4994957;28;20076;-86
2023/06/17 12:17:24;;;;;;;6.88;2.92;;;;;;;;;;4994670;28;20081;-88
2023/06/17 12:19:50;;;;;;;4.35;3.05;;;;;;;;;;5020750;28;20065;-86
2023/06/17 12:22:16;;;;;;;8.68;3.15;;;;;;;;;;5054099;28;20052;-86
2023/06/17 12:24:42;;;;;;;4.93;3.38;;;;;;;;;;5038019;28;20032;-86
2023/06/17 12:27:08;;;;;;;5.85;2.88;;;;;;;;;;5037406;28;20017;-86
2023/06/17 12:29:34;;;;;;;6.97;3.20;;;;;;;;;;5051439;28;20350;-86
2023/06/17 12:32:00;;;;;;;5.97;2.63;;;;;;;;;;5050997;28;20030;-86
2023/06/17 12:34:26;;;;;;;4.28;2.63;;;;;;;;;;5035157;28;20036;-84
2023/06/17 12:36:53;;;;;;;6.85;2.75;;;;;;;;;;5037741;28;20446;-86
2023/06/17 12:39:19;;;;;;;7.57;2.70;;;;;;;;;;5035572;28;20025;-85
2023/06/17 12:41:45;;;;;;;4.82;2.88;;;;;;;;;;5050797;28;20084;-86
2023/06/17 12:44:12;;;;;;;4.38;2.72;;;;;;;;;;5031910;28;20211;-85
2023/06/17 12:46:40;;;;;;;4.47;3.10;;;;;;;;;;5034360;28;20061;-84
2023/06/17 12:49:06;;;;;;;5.47;2.70;;;;;;;;;;5040328;28;20056;-85
2023/06/17 12:51:34;;;;;;;3.63;3.00;;;;;;;;;;5037450;28;20114;-86
2023/06/17 12:54:03;;;;;;;4.03;2.80;;;;;;;;;;5041102;28;20323;-85
2023/06/17 12:56:29;;;;;;;8.60;3.10;;;;;;;;;;5049276;28;20477;-86
2023/06/17 12:58:55;;;;;;;4.70;2.90;;;;;;;;;;5050787;28;21753;-83
2023/06/17 13:01:21;;;;;;;6.13;2.50;;;;;;;;;;5037045;28;20138;-84
2023/06/17 13:03:47;;;;;;;3.97;2.72;;;;;;;;;;5050193;28;20420;-84
2023/06/17 13:06:14;;;;;;;7.95;2.53;;;;;;;;;;5034608;28;20029;-86
2023/06/17 13:08:41;;;;;;;6.68;2.65;;;;;;;;;;5052529;28;20021;-86
2023/06/17 13:11:07;;;;;;;5.40;2.70;;;;;;;;;;5041971;28;20013;-86
2023/06/17 13:13:33;;;;;;;7.88;2.80;;;;;;;;;;5051122;28;20047;-85
2023/06/17 13:15:59;;;;;;;5.45;2.63;;;;;;;;;;5080781;22;20041;-85
2023/06/17 13:18:25;;;;;;;7.88;2.72;;;;;;;;;;5061172;28;20029;-86
2023/06/17 13:20:51;;;;;;;7.18;3.42;;;;;;;;;;5059067;28;20025;-86
2023/06/17 13:23:20;;;;;;;10.73;2.90;;;;;;;;;;5057107;28;20029;-86
2023/06/17 13:25:46;;;;;;;8.15;2.28;;;;;;;;;;5058149;28;20021;-86
2023/06/17 13:28:12;;;;;;;4.82;2.42;;;;;;;;;;5045522;28;20049;-84
2023/06/17 13:30:38;;;;;;;4.43;2.13;;;;;;;;;;5041236;28;20060;-88
2023/06/17 13:33:06;;;;;;;7.65;2.75;;;;;;;;;;5040004;28;20386;-85
2023/06/17 13:35:32;;;;;;;3.63;2.03;;;;;;;;;;5044252;28;20076;-85
2023/06/17 13:37:59;;;;;;;5.43;3.15;;;;;;;;;;5044394;28;20039;-85
2023/06/17 13:40:25;;;;;;;6.13;2.53;;;;;;;;;;5041814;28;20021;-85
2023/06/17 13:42:51;;;;;;;9.55;3.00;;;;;;;;;;5052288;28;20112;-86
2023/06/17 13:45:17;;;;;;;4.30;2.25;;;;;;;;;;5044280;28;20477;-85
2023/06/17 13:47:43;;;;;;;3.83;2.88;;;;;;;;;;5043583;28;20039;-88
2023/06/17 13:50:09;;;;;;;5.20;3.10;;;;;;;;;;5044693;28;20021;-88
2023/06/17 13:52:40;;;;;;;6.30;2.85;;;;;;;;;;5049532;28;20025;-85
2023/06/17 13:55:06;;;;;;;4.65;2.70;;;;;;;;;;5057395;28;20029;-85
2023/06/17 13:57:32;;;;;;;7.35;2.85;;;;;;;;;;5047374;28;20025;-88
2023/06/17 13:59:58;;;;;;;6.68;2.80;;;;;;;;;;5045210;28;20124;-86
2023/06/17 14:02:24;;;;;;;3.78;2.55;;;;;;;;;;5044107;28;20405;-86
2023/06/17 14:04:51;;;;;;;52.80;6.22;;;;;;;;;;5044898;28;20044;-86
2023/06/17 14:07:17;;;;;;;4.60;2.78;;;;;;;;;;5044168;28;20021;-86
2023/06/17 14:09:43;;;;;;;3.45;2.20;;;;;;;;;;5042602;28;20646;-87
2023/06/17 14:12:10;;;;;;;4.93;2.35;;;;;;;;;;5041533;28;20021;-85
2023/06/17 14:14:38;;;;;;;5.68;2.78;;;;;;;;;;5058268;28;20389;-85
2023/06/17 14:17:04;;;;;;;5.72;2.22;;;;;;;;;;5043547;28;20117;-86
2023/06/17 14:19:33;;;;;;;7.75;2.58;;;;;;;;;;5045579;28;20043;-85
2023/06/17 14:22:06;;;;;;;6.20;2.30;;;;;;;;;;5059940;28;20109;-86
2023/06/17 14:24:32;;;;;;;3.65;2.13;;;;;;;;;;5048548;28;20782;-86
2023/06/17 14:27:25;;;;;;;2.65;2.10;;;;;;;;;;5044009;28;20446;-86
2023/06/17 14:29:51;;;;;;;8.65;2.30;;;;;;;;;;5046304;28;20021;-85
2023/06/17 14:32:17;;;;;;;3.33;2.35;;;;;;;;;;5045765;28;20039;-86
2023/06/17 14:34:43;;;;;;;5.60;2.35;;;;;;;;;;5049686;28;20025;-83
2023/06/17 14:37:09;;;;;;;2.83;2.20;;;;;;;;;;5063435;28;20040;-86
2023/06/17 14:39:35;;;;;;;2.55;2.22;;;;;;;;;;5043654;28;20025;-87
2023/06/17 14:42:01;;;;;;;5.13;2.05;;;;;;;;;;5061588;28;20029;-85
2023/06/17 14:44:27;;;;;;;4.68;2.15;;;;;;;;;;5044656;28;20021;-86
2023/06/17 14:46:53;;;;;;;8.52;2.03;;;;;;;;;;5051782;28;20350;-86
2023/06/17 14:49:19;;;;;;;5.45;1.90;;;;;;;;;;5053597;28;20021;-85
2023/06/17 14:51:47;;;;;;;5.13;2.05;;;;;;;;;;5047285;28;20036;-84
2023/06/17 14:54:14;;;;;;;9.38;2.75;;;;;;;;;;5066777;28;20074;-85
2023/06/17 14:56:40;;;;;;;4.28;2.25;;;;;;;;;;5045346;28;20021;-85
2023/06/17 14:59:06;;;;;;;1.88;1.55;;;;;;;;;;5047843;28;20039;-85
2023/06/17 15:01:36;;;;;;;2.58;1.20;;;;;;;;;;5046825;28;20100;-85
2023/06/17 15:04:02;;;;;;;1.90;1.33;;;;;;;;;;5045990;28;20040;-86
2023/06/17 15:06:29;;;;;;;2.80;1.83;;;;;;;;;;5046305;28;20085;-83